createdAt,value
2023-02-11T00:00:01.166Z,23.06
2023-02-11T00:02:33.589Z,22.69
2023-02-11T00:05:09.423Z,22.92
2023-02-11T00:07:56.437Z,22.72
2023-02-11T00:10:49.024Z,25.09
2023-02-11T00:13:33.022Z,22.49
2023-02-11T00:16:47.061Z,23.77
2023-02-11T00:19:41.728Z,23.77
2023-02-11T00:22:17.047Z,23.89
2023-02-11T00:27:50.493Z,24.07
2023-02-11T00:30:30.248Z,24.59
2023-02-11T00:33:13.773Z,23.28
2023-02-11T00:36:10.124Z,22.05
2023-02-11T00:39:06.808Z,23.08
2023-02-11T00:41:38.923Z,23.90
2023-02-11T00:44:44.944Z,22.69
2023-02-11T00:47:37.522Z,23.63
2023-02-11T00:50:10.419Z,24.29
2023-02-11T00:52:37.946Z,23.77
2023-02-11T00:55:20.788Z,22.45
2023-02-11T00:58:29.490Z,22.25
2023-02-11T01:01:18.525Z,22.28
2023-02-11T01:04:25.449Z,22.27
2023-02-11T01:07:09.453Z,24.08
2023-02-11T01:13:20.857Z,22.67
2023-02-11T01:16:31.005Z,21.73
2023-02-11T01:19:18.596Z,21.72
2023-02-11T01:22:22.434Z,23.62
2023-02-11T01:25:36.919Z,22.95
2023-02-11T01:28:19.621Z,23.84
2023-02-11T01:31:09.170Z,22.34
2023-02-11T01:33:36.794Z,22.42
2023-02-11T01:36:08.067Z,23.98
2023-02-11T01:38:58.459Z,24.54
2023-02-11T01:42:25.678Z,22.75
2023-02-11T01:46:03.236Z,22.02
2023-02-11T01:49:31.264Z,21.66
2023-02-11T01:52:33.676Z,21.98
2023-02-11T01:55:49.432Z,23.12
2023-02-11T01:58:27.506Z,22.80
2023-02-11T02:01:50.542Z,21.78
2023-02-11T02:05:20.639Z,22.46
2023-02-11T02:11:45.284Z,22.87
2023-02-11T02:15:05.032Z,23.79
2023-02-11T02:18:09.867Z,22.40
2023-02-11T02:21:28.249Z,22.53
2023-02-11T02:24:14.413Z,23.60
2023-02-11T02:27:12.797Z,24.48
2023-02-11T02:30:24.572Z,23.70
2023-02-11T02:33:21.865Z,23.18
2023-02-11T02:39:46.117Z,22.50
2023-02-11T02:42:41.073Z,24.05
2023-02-11T02:45:19.129Z,24.10
2023-02-11T02:48:01.417Z,23.57
2023-02-11T02:50:44.624Z,22.59
2023-02-11T02:54:02.728Z,25.25
2023-02-11T02:57:23.617Z,23.72
2023-02-11T03:00:11.373Z,22.69
2023-02-11T03:03:05.656Z,22.77
2023-02-11T03:05:47.640Z,22.64
2023-02-11T03:08:34.609Z,22.01
2023-02-11T03:14:09.745Z,22.60
2023-02-11T03:17:46.734Z,22.16
2023-02-11T03:21:02.969Z,22.10
2023-02-11T03:23:40.435Z,23.16
2023-02-11T03:27:03.553Z,22.10
2023-02-11T03:29:54.932Z,22.05
2023-02-11T03:33:07.537Z,22.18
2023-02-11T03:36:15.723Z,21.88
2023-02-11T03:39:01.860Z,22.39
2023-02-11T03:42:03.961Z,22.60
2023-02-11T03:44:54.647Z,22.52
2023-02-11T03:47:46.530Z,22.00
2023-02-11T03:50:34.438Z,22.19
2023-02-11T03:53:12.514Z,22.13
2023-02-11T03:56:14.374Z,21.58
2023-02-11T04:04:48.860Z,23.20
2023-02-11T04:07:43.308Z,21.75
2023-02-11T04:10:52.021Z,21.74
2023-02-11T04:13:35.442Z,22.67
2023-02-11T04:16:45.882Z,22.06
2023-02-11T04:19:43.734Z,22.38
2023-02-11T04:22:19.355Z,22.37
2023-02-11T04:25:22.365Z,21.91
2023-02-11T04:28:05.332Z,22.24
2023-02-11T04:31:02.290Z,23.67
2023-02-11T04:33:42.047Z,22.77
2023-02-11T04:36:18.241Z,23.72
2023-02-11T04:39:25.713Z,22.78
2023-02-11T04:42:12.100Z,22.04
2023-02-11T04:45:01.919Z,22.37
2023-02-11T04:47:58.684Z,21.75
2023-02-11T04:50:48.162Z,21.73
2023-02-11T04:53:48.382Z,23.16
2023-02-11T04:56:51.788Z,22.45
2023-02-11T04:59:35.384Z,22.73
2023-02-11T05:02:27.446Z,22.92
2023-02-11T05:04:58.760Z,22.21
2023-02-11T05:10:53.017Z,21.93
2023-02-11T05:13:52.313Z,22.42
2023-02-11T05:16:32.066Z,22.05
2023-02-11T05:19:34.099Z,22.98
2023-02-11T05:22:14.620Z,22.17
2023-02-11T05:27:52.943Z,22.05
2023-02-11T05:30:49.165Z,24.43
2023-02-11T05:33:40.549Z,25.75
2023-02-11T05:36:35.212Z,24.08
2023-02-11T05:39:15.507Z,26.28
2023-02-11T05:41:52.825Z,23.50
2023-02-11T05:44:23.935Z,22.93
2023-02-11T05:47:12.554Z,24.97
2023-02-11T05:49:45.508Z,23.60
2023-02-11T05:52:23.668Z,22.79
2023-02-11T05:54:54.690Z,24.94
2023-02-11T05:57:27.465Z,22.98
2023-02-11T05:59:58.528Z,22.64
2023-02-11T06:02:34.053Z,22.51
2023-02-11T06:05:20.180Z,23.23
2023-02-11T06:08:06.494Z,23.24
2023-02-11T06:10:49.085Z,22.83
2023-02-11T06:13:38.032Z,22.63
2023-02-11T06:16:14.496Z,22.25
2023-02-11T06:18:45.221Z,22.29
2023-02-11T06:21:18.665Z,22.25
2023-02-11T06:24:17.441Z,21.66
2023-02-11T06:26:50.342Z,23.16
2023-02-11T06:29:31.032Z,22.37
2023-02-11T06:32:05.324Z,22.94
2023-02-11T06:34:39.333Z,22.89
2023-02-11T06:37:10.873Z,23.12
2023-02-11T06:39:39.016Z,23.32
2023-02-11T06:42:11.987Z,23.57
2023-02-11T06:44:47.633Z,23.96
2023-02-11T06:47:26.859Z,22.32
2023-02-11T06:50:03.540Z,22.27
2023-02-11T06:52:36.120Z,22.60
2023-02-11T06:55:11.902Z,21.53
2023-02-11T06:57:43.695Z,21.88
2023-02-11T07:00:17.696Z,21.82
2023-02-11T07:02:46.423Z,21.92
2023-02-11T07:05:14.998Z,22.21
2023-02-11T07:07:43.780Z,23.95
2023-02-11T07:10:13.806Z,22.50
2023-02-11T07:12:41.507Z,22.13
2023-02-11T07:15:22.932Z,21.66
2023-02-11T07:18:03.744Z,21.46
2023-02-11T07:20:32.191Z,21.50
2023-02-11T07:23:02.859Z,21.81
2023-02-11T07:25:44.369Z,21.07
2023-02-11T07:28:15.423Z,21.33
2023-02-11T07:30:49.122Z,20.44
2023-02-11T07:33:25.574Z,20.47
2023-02-11T07:36:06.215Z,20.86
2023-02-11T07:38:37.944Z,20.28
2023-02-11T07:41:16.957Z,20.53
2023-02-11T07:43:46.061Z,20.76
2023-02-11T07:46:18.407Z,20.06
2023-02-11T07:48:47.834Z,20.36
2023-02-11T07:51:24.708Z,20.29
2023-02-11T07:53:53.759Z,21.15
2023-02-11T07:56:23.055Z,20.81
2023-02-11T07:58:52.127Z,20.64
2023-02-11T08:01:25.590Z,20.52
2023-02-11T08:03:54.505Z,21.06
2023-02-11T08:06:26.279Z,20.21
2023-02-11T08:08:54.709Z,20.22
2023-02-11T08:11:29.404Z,20.27
2023-02-11T08:13:57.622Z,19.82
2023-02-11T08:16:28.966Z,20.27
2023-02-11T08:18:59.984Z,19.79
2023-02-11T08:21:29.517Z,20.09
2023-02-11T08:23:57.491Z,19.95
2023-02-11T08:26:29.634Z,19.63
2023-02-11T08:28:59.342Z,19.94
2023-02-11T08:31:35.094Z,21.10
2023-02-11T08:34:03.004Z,20.01
2023-02-11T08:36:35.862Z,22.08
2023-02-11T08:39:19.258Z,19.91
2023-02-11T08:41:51.643Z,19.41
2023-02-11T08:44:21.415Z,19.45
2023-02-11T08:46:53.488Z,19.14
2023-02-11T08:49:22.433Z,18.70
2023-02-11T08:51:55.995Z,19.96
2023-02-11T08:54:24.339Z,19.36
2023-02-11T08:56:52.276Z,19.29
2023-02-11T08:59:20.792Z,20.33
2023-02-11T09:01:49.827Z,18.78
2023-02-11T09:04:17.689Z,17.86
2023-02-11T09:06:46.827Z,17.34
2023-02-11T09:09:16.082Z,17.17
2023-02-11T09:11:45.317Z,17.20
2023-02-11T09:14:21.718Z,15.32
2023-02-11T09:17:14.401Z,16.10
2023-02-11T09:19:50.070Z,15.58
2023-02-11T09:22:35.183Z,15.76
2023-02-11T09:25:06.280Z,16.59
2023-02-11T09:27:42.044Z,13.77
2023-02-11T09:30:13.471Z,14.29
2023-02-11T09:32:41.056Z,14.15
2023-02-11T09:35:08.655Z,15.34
2023-02-11T09:37:37.426Z,13.96
2023-02-11T09:40:13.548Z,15.06
2023-02-11T09:43:16.662Z,16.68
2023-02-11T09:45:51.886Z,15.35
2023-02-11T09:48:24.280Z,15.71
2023-02-11T09:51:00.887Z,14.74
2023-02-11T09:53:41.048Z,14.45
2023-02-11T09:56:15.300Z,14.71
2023-02-11T09:58:55.300Z,14.27
2023-02-11T10:01:47.232Z,14.78
2023-02-11T10:04:38.940Z,14.68
2023-02-11T10:07:25.980Z,15.90
2023-02-11T10:10:16.052Z,16.22
2023-02-11T10:12:52.185Z,15.56
2023-02-11T10:15:38.696Z,15.83
2023-02-11T10:18:42.613Z,16.42
2023-02-11T10:21:32.397Z,15.68
2023-02-11T10:24:13.936Z,14.66
2023-02-11T10:27:02.958Z,12.71
2023-02-11T10:29:40.518Z,13.58
2023-02-11T10:32:54.441Z,15.44
2023-02-11T10:35:27.559Z,16.07
2023-02-11T10:37:59.432Z,16.32
2023-02-11T10:40:32.590Z,14.47
2023-02-11T10:43:17.508Z,14.33
2023-02-11T10:45:53.934Z,14.60
2023-02-11T10:48:52.846Z,13.04
2023-02-11T10:51:28.615Z,13.42
2023-02-11T10:54:04.319Z,13.43
2023-02-11T10:56:44.853Z,13.83
2023-02-11T10:59:35.141Z,15.24
2023-02-11T11:02:25.760Z,14.42
2023-02-11T11:05:17.646Z,14.85
2023-02-11T11:07:56.528Z,16.15
2023-02-11T11:10:39.555Z,13.79
2023-02-11T11:13:23.661Z,11.80
2023-02-11T11:16:12.454Z,9.73
2023-02-11T11:18:42.126Z,12.06
2023-02-11T11:21:30.021Z,10.66
2023-02-11T11:24:03.931Z,10.29
2023-02-11T11:26:54.870Z,11.85
2023-02-11T11:29:43.093Z,13.70
2023-02-11T11:32:27.543Z,13.43
2023-02-11T11:35:00.469Z,14.54
2023-02-11T11:37:29.703Z,14.93
2023-02-11T11:40:08.528Z,13.96
2023-02-11T11:42:40.515Z,13.81
2023-02-11T11:45:20.869Z,14.70
2023-02-11T11:48:00.372Z,13.96
2023-02-11T11:50:55.581Z,13.05
2023-02-11T11:53:32.179Z,12.62
2023-02-11T11:56:32.500Z,12.07
2023-02-11T11:59:23.794Z,13.07
2023-02-11T12:02:23.515Z,14.32
2023-02-11T12:05:35.831Z,14.20
2023-02-11T12:08:23.626Z,14.67
2023-02-11T12:11:19.028Z,14.33
2023-02-11T12:14:15.677Z,14.58
2023-02-11T12:17:05.848Z,13.53
2023-02-11T12:19:58.076Z,13.10
2023-02-11T12:22:59.241Z,12.81
2023-02-11T12:26:27.347Z,14.25
2023-02-11T12:30:05.713Z,13.34
2023-02-11T12:33:23.073Z,13.79
2023-02-11T12:36:34.592Z,13.41
2023-02-11T12:39:29.830Z,13.00
2023-02-11T12:42:34.975Z,13.37
2023-02-11T12:45:18.564Z,12.82
2023-02-11T12:48:18.009Z,12.65
2023-02-11T12:51:32.055Z,13.11
2023-02-11T12:54:32.777Z,13.68
2023-02-11T12:57:34.560Z,11.82
2023-02-11T13:00:42.615Z,13.10
2023-02-11T13:03:26.520Z,13.69
2023-02-11T13:06:01.282Z,12.96
2023-02-11T13:08:55.973Z,14.63
2023-02-11T13:11:34.294Z,15.03
2023-02-11T13:14:31.492Z,13.78
2023-02-11T13:17:20.953Z,14.24
2023-02-11T13:20:15.856Z,14.36
2023-02-11T13:23:00.048Z,13.24
2023-02-11T13:25:43.756Z,13.99
2023-02-11T13:28:33.478Z,14.77
2023-02-11T13:31:03.704Z,15.20
2023-02-11T13:33:42.959Z,14.82
2023-02-11T13:36:27.096Z,13.92
2023-02-11T13:39:21.012Z,12.70
2023-02-11T13:42:01.894Z,13.16
2023-02-11T13:44:36.510Z,14.48
2023-02-11T13:47:32.317Z,13.30
2023-02-11T13:50:13.966Z,12.72
2023-02-11T13:52:45.836Z,13.25
2023-02-11T13:55:25.787Z,13.36
2023-02-11T13:58:11.541Z,14.07
2023-02-11T14:00:44.581Z,13.18
2023-02-11T14:03:52.414Z,14.10
2023-02-11T14:06:47.481Z,13.67
2023-02-11T14:09:17.287Z,14.45
2023-02-11T14:11:49.222Z,14.06
2023-02-11T14:14:24.473Z,14.28
2023-02-11T14:17:03.294Z,14.52
2023-02-11T14:19:40.384Z,14.82
2023-02-11T14:22:20.753Z,14.16
2023-02-11T14:25:15.683Z,12.88
2023-02-11T14:28:10.678Z,15.36
2023-02-11T14:31:00.980Z,14.22
2023-02-11T14:36:52.716Z,13.91
2023-02-11T14:39:43.484Z,14.19
2023-02-11T14:45:29.037Z,15.32
2023-02-11T14:48:21.304Z,14.08
2023-02-11T14:50:54.378Z,14.39
2023-02-11T14:53:28.924Z,14.59
2023-02-11T14:56:01.460Z,15.42
2023-02-11T14:58:39.725Z,15.26
2023-02-11T15:01:39.376Z,14.21
2023-02-11T15:04:30.193Z,15.18
2023-02-11T15:07:10.699Z,14.74
2023-02-11T15:09:44.623Z,14.34
2023-02-11T15:12:25.053Z,14.58
2023-02-11T15:14:59.614Z,14.96
2023-02-11T15:17:31.872Z,15.31
2023-02-11T15:20:03.818Z,13.32
2023-02-11T15:22:38.057Z,14.26
2023-02-11T15:25:16.764Z,14.68
2023-02-11T15:27:55.382Z,14.11
2023-02-11T15:30:34.190Z,14.82
2023-02-11T15:33:05.566Z,14.20
2023-02-11T15:35:38.204Z,15.69
2023-02-11T15:38:10.174Z,15.56
2023-02-11T15:40:37.911Z,16.29
2023-02-11T15:43:13.225Z,14.99
2023-02-11T15:45:55.067Z,15.73
2023-02-11T15:48:50.739Z,15.33
2023-02-11T15:51:29.549Z,15.28
2023-02-11T15:54:06.693Z,14.55
2023-02-11T15:56:48.465Z,14.36
2023-02-11T15:59:28.939Z,14.64
2023-02-11T16:02:05.812Z,15.11
2023-02-11T16:04:37.921Z,15.00
2023-02-11T16:07:06.720Z,15.06
2023-02-11T16:09:36.838Z,16.02
2023-02-11T16:12:24.179Z,16.18
2023-02-11T16:14:52.074Z,15.95
2023-02-11T16:17:26.647Z,16.28
2023-02-11T16:19:55.418Z,16.88
2023-02-11T16:22:27.984Z,15.96
2023-02-11T16:25:01.319Z,15.04
2023-02-11T16:27:41.811Z,15.99
2023-02-11T16:30:34.929Z,16.39
2023-02-11T16:33:04.557Z,16.51
2023-02-11T16:35:32.855Z,15.55
2023-02-11T16:38:02.215Z,15.50
2023-02-11T16:40:33.095Z,15.71
2023-02-11T16:43:01.652Z,15.22
2023-02-11T16:45:32.763Z,16.04
2023-02-11T16:48:02.792Z,15.83
2023-02-11T16:50:31.147Z,17.03
2023-02-11T16:52:59.635Z,16.60
2023-02-11T16:55:29.393Z,15.55
2023-02-11T16:57:58.115Z,16.37
2023-02-11T17:00:26.899Z,16.14
2023-02-11T17:02:55.282Z,16.22
2023-02-11T17:05:25.197Z,15.96
2023-02-11T17:07:53.033Z,16.64
2023-02-11T17:10:23.717Z,16.30
2023-02-11T17:12:53.746Z,17.54
2023-02-11T17:15:21.717Z,17.07
2023-02-11T17:17:50.625Z,16.90
2023-02-11T17:20:19.148Z,17.37
2023-02-11T17:22:47.691Z,17.08
2023-02-11T17:25:17.587Z,16.37
2023-02-11T17:27:45.704Z,17.24
2023-02-11T17:30:15.461Z,16.97
2023-02-11T17:32:44.362Z,16.96
2023-02-11T17:35:13.281Z,17.39
2023-02-11T17:37:41.713Z,17.05
2023-02-11T17:40:11.092Z,17.64
2023-02-11T17:42:39.510Z,16.84
2023-02-11T17:45:09.043Z,16.99
2023-02-11T17:47:38.840Z,16.65
2023-02-11T17:50:08.287Z,17.23
2023-02-11T17:52:38.116Z,17.14
2023-02-11T17:55:06.853Z,16.95
2023-02-11T17:57:36.171Z,18.17
2023-02-11T18:00:06.266Z,17.20
2023-02-11T18:02:41.165Z,17.02
2023-02-11T18:05:09.591Z,17.81
2023-02-11T18:07:38.041Z,16.67
2023-02-11T18:10:08.193Z,16.76
2023-02-11T18:12:36.979Z,18.13
2023-02-11T18:15:06.069Z,17.18
2023-02-11T18:17:34.536Z,17.61
2023-02-11T18:20:05.412Z,17.43
2023-02-11T18:22:39.390Z,18.93
2023-02-11T18:25:09.000Z,17.75
2023-02-11T18:27:37.939Z,17.88
2023-02-11T18:30:07.642Z,17.93
2023-02-11T18:32:35.656Z,17.69
2023-02-11T18:35:04.961Z,18.62
2023-02-11T18:37:33.668Z,17.89
2023-02-11T18:40:02.194Z,19.40
2023-02-11T18:42:29.849Z,18.88
2023-02-11T18:44:58.486Z,17.83
2023-02-11T18:47:27.492Z,17.87
2023-02-11T18:49:55.967Z,18.29
2023-02-11T18:52:23.815Z,18.15
2023-02-11T18:54:52.959Z,18.56
2023-02-11T18:57:21.304Z,18.31
2023-02-11T18:59:57.009Z,18.52
2023-02-11T19:03:09.424Z,17.42
2023-02-11T19:05:47.862Z,17.78
2023-02-11T19:08:17.448Z,18.37
2023-02-11T19:10:50.195Z,18.53
2023-02-11T19:13:19.932Z,17.62
2023-02-11T19:15:48.755Z,17.62
2023-02-11T19:18:17.041Z,19.22
2023-02-11T19:20:45.871Z,19.03
2023-02-11T19:23:14.526Z,18.84
2023-02-11T19:25:48.314Z,17.70
2023-02-11T19:28:17.095Z,18.47
2023-02-11T19:30:46.102Z,18.21
2023-02-11T19:33:15.454Z,18.88
2023-02-11T19:35:43.816Z,19.83
2023-02-11T19:38:14.236Z,18.26
2023-02-11T19:40:46.505Z,18.63
2023-02-11T19:43:15.615Z,18.72
2023-02-11T19:45:57.710Z,17.31
2023-02-11T19:48:26.322Z,19.00
2023-02-11T19:50:55.210Z,17.19
2023-02-11T19:53:23.863Z,17.87
2023-02-11T19:55:53.578Z,17.80
2023-02-11T19:58:21.916Z,17.83
2023-02-11T20:00:52.427Z,17.76
2023-02-11T20:03:20.730Z,17.88
2023-02-11T20:05:49.074Z,18.36
2023-02-11T20:08:17.403Z,18.68
2023-02-11T20:10:45.775Z,19.23
2023-02-11T20:13:14.631Z,21.02
2023-02-11T20:15:43.053Z,20.95
2023-02-11T20:18:11.566Z,22.13
2023-02-11T20:20:39.927Z,20.60
2023-02-11T20:23:08.441Z,20.84
2023-02-11T20:25:40.547Z,22.33
2023-02-11T20:28:08.877Z,21.84
2023-02-11T20:30:39.234Z,20.40
2023-02-11T20:33:07.400Z,23.93
2023-02-11T20:35:36.379Z,20.61
2023-02-11T20:38:07.643Z,20.93
2023-02-11T20:40:36.108Z,20.87
2023-02-11T20:43:29.545Z,23.35
2023-02-11T20:46:05.358Z,21.88
2023-02-11T20:48:34.593Z,21.36
2023-02-11T20:51:07.277Z,22.19
2023-02-11T20:53:37.398Z,24.79
2023-02-11T20:56:07.238Z,21.77
2023-02-11T20:58:36.738Z,23.11
2023-02-11T21:01:13.980Z,23.50
2023-02-11T21:03:44.087Z,24.06
2023-02-11T21:06:12.064Z,23.91
2023-02-11T21:08:40.587Z,22.77
2023-02-11T21:11:09.558Z,22.90
2023-02-11T21:13:39.273Z,24.44
2023-02-11T21:16:11.715Z,26.19
2023-02-11T21:18:40.535Z,25.07
2023-02-11T21:21:09.799Z,24.68
2023-02-11T21:23:39.629Z,25.16
2023-02-11T21:26:09.804Z,25.98
2023-02-11T21:28:40.809Z,25.92
2023-02-11T21:31:18.168Z,24.79
2023-02-11T21:33:46.188Z,23.31
2023-02-11T21:36:17.104Z,25.20
2023-02-11T21:38:50.160Z,25.87
2023-02-11T21:41:22.820Z,25.92
2023-02-11T21:43:51.074Z,24.93
2023-02-11T21:46:20.644Z,25.45
2023-02-11T21:48:49.115Z,25.59
2023-02-11T21:51:24.259Z,24.90
2023-02-11T21:54:01.312Z,25.31
2023-02-11T21:56:31.730Z,27.47
2023-02-11T21:59:02.037Z,25.85
2023-02-11T22:01:35.501Z,24.61
2023-02-11T22:04:04.437Z,26.37
2023-02-11T22:06:34.606Z,25.22
2023-02-11T22:09:05.858Z,25.59
2023-02-11T22:11:35.882Z,25.84
2023-02-11T22:14:04.576Z,26.81
2023-02-11T22:16:33.444Z,26.45
2023-02-11T22:19:06.006Z,26.60
2023-02-11T22:21:35.402Z,25.88
2023-02-11T22:24:04.926Z,27.08
2023-02-11T22:26:33.304Z,27.91
2023-02-11T22:29:01.821Z,25.97
2023-02-11T22:31:44.749Z,26.66
2023-02-11T22:34:12.409Z,28.00
2023-02-11T22:36:42.207Z,27.55
2023-02-11T22:39:16.036Z,25.96
2023-02-11T22:41:46.634Z,26.43
2023-02-11T22:44:17.256Z,26.70
2023-02-11T22:46:48.538Z,27.50
2023-02-11T22:49:18.086Z,26.36
2023-02-11T22:51:46.515Z,26.43
2023-02-11T22:54:17.306Z,27.15
2023-02-11T22:56:46.298Z,29.08
2023-02-11T22:59:15.832Z,25.95
2023-02-11T23:01:44.961Z,26.30
2023-02-11T23:04:15.996Z,25.43
2023-02-11T23:06:47.679Z,26.58
2023-02-11T23:09:15.773Z,27.33
2023-02-11T23:11:44.264Z,26.38
2023-02-11T23:14:17.554Z,25.98
2023-02-11T23:16:51.266Z,28.53
2023-02-11T23:19:21.996Z,28.83
2023-02-11T23:21:52.836Z,25.68
2023-02-11T23:24:23.316Z,27.01
2023-02-11T23:26:57.864Z,25.49
2023-02-11T23:29:25.648Z,26.08
2023-02-11T23:31:53.186Z,25.13
2023-02-11T23:34:25.248Z,24.81
2023-02-11T23:36:52.968Z,26.35
2023-02-11T23:39:20.642Z,26.73
2023-02-11T23:41:48.732Z,27.68
2023-02-11T23:44:23.965Z,26.59
2023-02-11T23:46:51.540Z,26.70
2023-02-11T23:49:19.077Z,22.99
2023-02-11T23:51:46.681Z,27.37
2023-02-11T23:54:14.822Z,25.42
2023-02-11T23:56:45.217Z,22.99
2023-02-11T23:59:14.249Z,24.64
